sensor_id;sensor_type;location;lat;lon;timestamp;P1;durP1;ratioP1;P2;durP2;ratioP2
70981;SDS011;58640;51.320;9.456;2023-05-07T00:00:43;20.33;;;14.20;;
70981;SDS011;58640;51.320;9.456;2023-05-07T00:03:08;16.55;;;12.63;;
70981;SDS011;58640;51.320;9.456;2023-05-07T00:05:34;16.35;;;12.05;;
70981;SDS011;58640;51.320;9.456;2023-05-07T00:07:59;18.20;;;13.60;;
70981;SDS011;58640;51.320;9.456;2023-05-07T00:10:25;18.75;;;13.45;;
70981;SDS011;58640;51.320;9.456;2023-05-07T00:12:50;18.65;;;13.93;;
70981;SDS011;58640;51.320;9.456;2023-05-07T00:15:16;18.15;;;13.50;;
70981;SDS011;58640;51.320;9.456;2023-05-07T00:17:41;19.10;;;13.50;;
70981;SDS011;58640;51.320;9.456;2023-05-07T00:20:06;21.52;;;14.48;;
70981;SDS011;58640;51.320;9.456;2023-05-07T00:22:32;20.02;;;13.85;;
70981;SDS011;58640;51.320;9.456;2023-05-07T00:24:58;16.48;;;13.48;;
70981;SDS011;58640;51.320;9.456;2023-05-07T00:27:24;18.73;;;13.63;;
70981;SDS011;58640;51.320;9.456;2023-05-07T00:29:49;20.50;;;14.95;;
70981;SDS011;58640;51.320;9.456;2023-05-07T00:32:15;18.98;;;13.77;;
70981;SDS011;58640;51.320;9.456;2023-05-07T00:34:40;16.58;;;13.57;;
70981;SDS011;58640;51.320;9.456;2023-05-07T00:37:06;17.60;;;13.50;;
70981;SDS011;58640;51.320;9.456;2023-05-07T00:39:34;19.48;;;13.75;;
70981;SDS011;58640;51.320;9.456;2023-05-07T00:42:00;15.35;;;12.60;;
70981;SDS011;58640;51.320;9.456;2023-05-07T00:44:26;17.88;;;14.13;;
70981;SDS011;58640;51.320;9.456;2023-05-07T00:46:52;21.63;;;13.30;;
70981;SDS011;58640;51.320;9.456;2023-05-07T00:49:18;21.65;;;14.85;;
70981;SDS011;58640;51.320;9.456;2023-05-07T00:51:44;18.48;;;14.73;;
70981;SDS011;58640;51.320;9.456;2023-05-07T00:54:10;19.88;;;13.82;;
70981;SDS011;58640;51.320;9.456;2023-05-07T00:56:36;21.27;;;14.88;;
70981;SDS011;58640;51.320;9.456;2023-05-07T00:59:02;19.80;;;14.68;;
70981;SDS011;58640;51.320;9.456;2023-05-07T01:01:28;21.58;;;14.77;;
70981;SDS011;58640;51.320;9.456;2023-05-07T01:03:53;20.42;;;14.80;;
70981;SDS011;58640;51.320;9.456;2023-05-07T01:06:19;20.92;;;15.18;;
70981;SDS011;58640;51.320;9.456;2023-05-07T01:08:46;21.38;;;15.80;;
70981;SDS011;58640;51.320;9.456;2023-05-07T01:11:13;22.65;;;14.80;;
70981;SDS011;58640;51.320;9.456;2023-05-07T01:13:39;20.17;;;14.75;;
70981;SDS011;58640;51.320;9.456;2023-05-07T01:16:05;21.52;;;16.73;;
70981;SDS011;58640;51.320;9.456;2023-05-07T01:18:31;19.75;;;15.63;;
70981;SDS011;58640;51.320;9.456;2023-05-07T01:20:58;21.05;;;15.48;;
70981;SDS011;58640;51.320;9.456;2023-05-07T01:23:24;23.70;;;16.45;;
70981;SDS011;58640;51.320;9.456;2023-05-07T01:25:51;23.15;;;16.35;;
70981;SDS011;58640;51.320;9.456;2023-05-07T01:28:17;23.38;;;14.85;;
70981;SDS011;58640;51.320;9.456;2023-05-07T01:30:43;22.38;;;15.88;;
70981;SDS011;58640;51.320;9.456;2023-05-07T01:33:18;25.25;;;16.60;;
70981;SDS011;58640;51.320;9.456;2023-05-07T01:35:47;25.48;;;17.35;;
70981;SDS011;58640;51.320;9.456;2023-05-07T01:38:15;23.67;;;15.85;;
70981;SDS011;58640;51.320;9.456;2023-05-07T01:40:41;27.10;;;17.27;;
70981;SDS011;58640;51.320;9.456;2023-05-07T01:43:07;25.88;;;16.50;;
70981;SDS011;58640;51.320;9.456;2023-05-07T01:45:32;25.27;;;16.63;;
70981;SDS011;58640;51.320;9.456;2023-05-07T01:47:59;23.38;;;16.33;;
70981;SDS011;58640;51.320;9.456;2023-05-07T01:50:26;27.38;;;18.33;;
70981;SDS011;58640;51.320;9.456;2023-05-07T01:52:52;23.55;;;16.70;;
70981;SDS011;58640;51.320;9.456;2023-05-07T01:55:18;23.02;;;16.45;;
70981;SDS011;58640;51.320;9.456;2023-05-07T01:57:43;26.90;;;17.35;;
70981;SDS011;58640;51.320;9.456;2023-05-07T02:00:08;28.83;;;17.50;;
70981;SDS011;58640;51.320;9.456;2023-05-07T02:02:34;29.95;;;17.80;;
70981;SDS011;58640;51.320;9.456;2023-05-07T02:05:00;23.80;;;18.17;;
70981;SDS011;58640;51.320;9.456;2023-05-07T02:07:26;25.63;;;17.85;;
70981;SDS011;58640;51.320;9.456;2023-05-07T02:09:52;26.10;;;17.27;;
70981;SDS011;58640;51.320;9.456;2023-05-07T02:12:18;27.73;;;19.38;;
70981;SDS011;58640;51.320;9.456;2023-05-07T02:14:43;25.38;;;18.77;;
70981;SDS011;58640;51.320;9.456;2023-05-07T02:17:08;31.02;;;19.58;;
70981;SDS011;58640;51.320;9.456;2023-05-07T02:19:33;30.67;;;18.65;;
70981;SDS011;58640;51.320;9.456;2023-05-07T02:21:59;31.92;;;21.17;;
70981;SDS011;58640;51.320;9.456;2023-05-07T02:24:24;32.55;;;20.23;;
70981;SDS011;58640;51.320;9.456;2023-05-07T02:26:50;26.52;;;19.55;;
70981;SDS011;58640;51.320;9.456;2023-05-07T02:29:15;32.00;;;18.90;;
70981;SDS011;58640;51.320;9.456;2023-05-07T02:31:40;27.05;;;18.77;;
70981;SDS011;58640;51.320;9.456;2023-05-07T02:34:06;27.83;;;19.02;;
70981;SDS011;58640;51.320;9.456;2023-05-07T02:36:31;29.08;;;20.10;;
70981;SDS011;58640;51.320;9.456;2023-05-07T02:38:56;27.65;;;18.40;;
70981;SDS011;58640;51.320;9.456;2023-05-07T02:41:22;27.70;;;19.90;;
70981;SDS011;58640;51.320;9.456;2023-05-07T02:43:47;29.50;;;19.23;;
70981;SDS011;58640;51.320;9.456;2023-05-07T02:46:12;28.55;;;19.15;;
70981;SDS011;58640;51.320;9.456;2023-05-07T02:48:38;26.52;;;18.10;;
70981;SDS011;58640;51.320;9.456;2023-05-07T02:51:03;29.55;;;18.83;;
70981;SDS011;58640;51.320;9.456;2023-05-07T02:53:30;27.50;;;18.80;;
70981;SDS011;58640;51.320;9.456;2023-05-07T02:55:56;27.58;;;18.52;;
70981;SDS011;58640;51.320;9.456;2023-05-07T02:58:22;30.20;;;18.10;;
70981;SDS011;58640;51.320;9.456;2023-05-07T03:00:48;28.17;;;18.60;;
70981;SDS011;58640;51.320;9.456;2023-05-07T03:03:13;27.33;;;18.73;;
70981;SDS011;58640;51.320;9.456;2023-05-07T03:05:39;29.83;;;19.55;;
70981;SDS011;58640;51.320;9.456;2023-05-07T03:08:05;26.63;;;18.25;;
70981;SDS011;58640;51.320;9.456;2023-05-07T03:10:30;31.20;;;19.35;;
70981;SDS011;58640;51.320;9.456;2023-05-07T03:12:56;34.50;;;20.08;;
70981;SDS011;58640;51.320;9.456;2023-05-07T03:15:21;31.10;;;19.80;;
70981;SDS011;58640;51.320;9.456;2023-05-07T03:17:47;28.35;;;20.05;;
70981;SDS011;58640;51.320;9.456;2023-05-07T03:20:13;35.45;;;21.02;;
70981;SDS011;58640;51.320;9.456;2023-05-07T03:22:38;34.92;;;20.88;;
70981;SDS011;58640;51.320;9.456;2023-05-07T03:25:04;30.08;;;20.10;;
70981;SDS011;58640;51.320;9.456;2023-05-07T03:27:29;32.65;;;21.50;;
70981;SDS011;58640;51.320;9.456;2023-05-07T03:29:55;32.78;;;20.70;;
70981;SDS011;58640;51.320;9.456;2023-05-07T03:32:20;35.25;;;19.98;;
70981;SDS011;58640;51.320;9.456;2023-05-07T03:34:46;32.60;;;19.85;;
70981;SDS011;58640;51.320;9.456;2023-05-07T03:37:11;29.25;;;19.77;;
70981;SDS011;58640;51.320;9.456;2023-05-07T03:39:36;29.05;;;20.20;;
70981;SDS011;58640;51.320;9.456;2023-05-07T03:42:02;32.60;;;19.77;;
70981;SDS011;58640;51.320;9.456;2023-05-07T03:44:27;38.83;;;21.15;;
70981;SDS011;58640;51.320;9.456;2023-05-07T03:46:53;32.05;;;20.75;;
70981;SDS011;58640;51.320;9.456;2023-05-07T03:49:18;30.50;;;20.15;;
70981;SDS011;58640;51.320;9.456;2023-05-07T03:51:44;32.40;;;21.42;;
70981;SDS011;58640;51.320;9.456;2023-05-07T03:54:09;32.63;;;20.65;;
70981;SDS011;58640;51.320;9.456;2023-05-07T03:56:34;29.85;;;20.23;;
70981;SDS011;58640;51.320;9.456;2023-05-07T03:59:00;31.45;;;20.90;;
70981;SDS011;58640;51.320;9.456;2023-05-07T04:01:26;31.40;;;20.90;;
70981;SDS011;58640;51.320;9.456;2023-05-07T04:03:52;31.58;;;20.77;;
70981;SDS011;58640;51.320;9.456;2023-05-07T04:06:17;34.05;;;21.30;;
70981;SDS011;58640;51.320;9.456;2023-05-07T04:08:42;35.50;;;22.48;;
70981;SDS011;58640;51.320;9.456;2023-05-07T04:11:08;33.78;;;20.50;;
70981;SDS011;58640;51.320;9.456;2023-05-07T04:13:33;34.25;;;21.63;;
70981;SDS011;58640;51.320;9.456;2023-05-07T04:16:00;33.60;;;20.90;;
70981;SDS011;58640;51.320;9.456;2023-05-07T04:18:26;32.13;;;20.90;;
70981;SDS011;58640;51.320;9.456;2023-05-07T04:20:52;36.25;;;21.52;;
70981;SDS011;58640;51.320;9.456;2023-05-07T04:23:17;31.73;;;21.73;;
70981;SDS011;58640;51.320;9.456;2023-05-07T04:25:42;32.90;;;21.52;;
70981;SDS011;58640;51.320;9.456;2023-05-07T04:28:08;32.95;;;20.85;;
70981;SDS011;58640;51.320;9.456;2023-05-07T04:30:33;34.75;;;22.48;;
70981;SDS011;58640;51.320;9.456;2023-05-07T04:32:58;32.90;;;20.98;;
70981;SDS011;58640;51.320;9.456;2023-05-07T04:35:24;33.55;;;20.40;;
70981;SDS011;58640;51.320;9.456;2023-05-07T04:37:49;39.20;;;21.75;;
70981;SDS011;58640;51.320;9.456;2023-05-07T04:40:14;34.35;;;22.80;;
70981;SDS011;58640;51.320;9.456;2023-05-07T04:42:40;33.28;;;22.02;;
70981;SDS011;58640;51.320;9.456;2023-05-07T04:45:06;38.38;;;22.33;;
70981;SDS011;58640;51.320;9.456;2023-05-07T04:47:33;32.58;;;20.20;;
70981;SDS011;58640;51.320;9.456;2023-05-07T04:49:59;33.00;;;20.27;;
70981;SDS011;58640;51.320;9.456;2023-05-07T04:52:24;30.50;;;20.50;;
70981;SDS011;58640;51.320;9.456;2023-05-07T04:54:49;33.38;;;21.95;;
70981;SDS011;58640;51.320;9.456;2023-05-07T04:57:15;34.88;;;21.02;;
70981;SDS011;58640;51.320;9.456;2023-05-07T04:59:41;29.65;;;19.80;;
70981;SDS011;58640;51.320;9.456;2023-05-07T05:02:07;33.55;;;20.80;;
70981;SDS011;58640;51.320;9.456;2023-05-07T05:04:32;30.48;;;19.17;;
70981;SDS011;58640;51.320;9.456;2023-05-07T05:06:58;31.70;;;20.15;;
70981;SDS011;58640;51.320;9.456;2023-05-07T05:09:23;28.85;;;18.77;;
70981;SDS011;58640;51.320;9.456;2023-05-07T05:11:48;26.00;;;18.00;;
70981;SDS011;58640;51.320;9.456;2023-05-07T05:14:14;29.10;;;17.42;;
70981;SDS011;58640;51.320;9.456;2023-05-07T05:16:39;27.05;;;17.88;;
70981;SDS011;58640;51.320;9.456;2023-05-07T05:19:04;26.40;;;17.33;;
70981;SDS011;58640;51.320;9.456;2023-05-07T05:21:30;23.65;;;16.92;;
70981;SDS011;58640;51.320;9.456;2023-05-07T05:23:56;27.27;;;16.77;;
70981;SDS011;58640;51.320;9.456;2023-05-07T05:26:21;22.90;;;15.45;;
70981;SDS011;58640;51.320;9.456;2023-05-07T05:28:47;20.33;;;14.40;;
70981;SDS011;58640;51.320;9.456;2023-05-07T05:31:12;26.27;;;17.70;;
70981;SDS011;58640;51.320;9.456;2023-05-07T05:33:39;23.77;;;16.67;;
70981;SDS011;58640;51.320;9.456;2023-05-07T05:36:05;21.48;;;14.55;;
70981;SDS011;58640;51.320;9.456;2023-05-07T05:38:30;19.08;;;13.80;;
70981;SDS011;58640;51.320;9.456;2023-05-07T05:40:56;18.25;;;12.88;;
70981;SDS011;58640;51.320;9.456;2023-05-07T05:43:21;16.58;;;12.02;;
70981;SDS011;58640;51.320;9.456;2023-05-07T05:45:46;19.70;;;12.85;;
70981;SDS011;58640;51.320;9.456;2023-05-07T05:48:12;15.95;;;11.32;;
70981;SDS011;58640;51.320;9.456;2023-05-07T05:50:37;18.13;;;11.93;;
70981;SDS011;58640;51.320;9.456;2023-05-07T05:53:03;15.52;;;11.43;;
70981;SDS011;58640;51.320;9.456;2023-05-07T05:55:28;20.50;;;12.13;;
70981;SDS011;58640;51.320;9.456;2023-05-07T05:57:53;17.42;;;11.50;;
70981;SDS011;58640;51.320;9.456;2023-05-07T06:00:19;20.00;;;12.05;;
70981;SDS011;58640;51.320;9.456;2023-05-07T06:02:47;16.25;;;11.55;;
70981;SDS011;58640;51.320;9.456;2023-05-07T06:05:12;16.15;;;10.95;;
70981;SDS011;58640;51.320;9.456;2023-05-07T06:07:38;18.48;;;12.73;;
70981;SDS011;58640;51.320;9.456;2023-05-07T06:10:03;17.73;;;11.52;;
70981;SDS011;58640;51.320;9.456;2023-05-07T06:12:29;20.45;;;16.13;;
70981;SDS011;58640;51.320;9.456;2023-05-07T06:14:54;26.75;;;21.08;;
70981;SDS011;58640;51.320;9.456;2023-05-07T06:17:20;25.83;;;18.67;;
70981;SDS011;58640;51.320;9.456;2023-05-07T06:19:45;24.58;;;16.77;;
70981;SDS011;58640;51.320;9.456;2023-05-07T06:22:10;20.00;;;14.75;;
70981;SDS011;58640;51.320;9.456;2023-05-07T06:24:36;18.83;;;12.60;;
70981;SDS011;58640;51.320;9.456;2023-05-07T06:27:01;20.83;;;11.10;;
70981;SDS011;58640;51.320;9.456;2023-05-07T06:29:26;13.57;;;10.45;;
70981;SDS011;58640;51.320;9.456;2023-05-07T06:31:52;14.23;;;10.63;;
70981;SDS011;58640;51.320;9.456;2023-05-07T06:34:18;15.25;;;10.30;;
70981;SDS011;58640;51.320;9.456;2023-05-07T06:36:43;16.40;;;10.80;;
70981;SDS011;58640;51.320;9.456;2023-05-07T06:39:09;15.07;;;10.98;;
70981;SDS011;58640;51.320;9.456;2023-05-07T06:41:34;13.43;;;10.30;;
70981;SDS011;58640;51.320;9.456;2023-05-07T06:44:00;13.80;;;10.13;;
70981;SDS011;58640;51.320;9.456;2023-05-07T06:46:28;15.45;;;10.07;;
70981;SDS011;58640;51.320;9.456;2023-05-07T06:48:54;13.95;;;10.40;;
70981;SDS011;58640;51.320;9.456;2023-05-07T06:51:19;15.68;;;10.15;;
70981;SDS011;58640;51.320;9.456;2023-05-07T06:53:45;11.65;;;8.95;;
70981;SDS011;58640;51.320;9.456;2023-05-07T06:56:10;13.23;;;10.00;;
70981;SDS011;58640;51.320;9.456;2023-05-07T06:58:36;14.60;;;10.23;;
70981;SDS011;58640;51.320;9.456;2023-05-07T07:01:02;13.02;;;9.73;;
70981;SDS011;58640;51.320;9.456;2023-05-07T07:03:27;14.38;;;9.93;;
70981;SDS011;58640;51.320;9.456;2023-05-07T07:05:53;13.10;;;9.35;;
70981;SDS011;58640;51.320;9.456;2023-05-07T07:08:19;11.75;;;8.65;;
70981;SDS011;58640;51.320;9.456;2023-05-07T07:10:46;12.55;;;9.25;;
70981;SDS011;58640;51.320;9.456;2023-05-07T07:13:12;12.32;;;9.43;;
70981;SDS011;58640;51.320;9.456;2023-05-07T07:15:37;15.32;;;9.82;;
70981;SDS011;58640;51.320;9.456;2023-05-07T07:18:02;12.70;;;8.82;;
70981;SDS011;58640;51.320;9.456;2023-05-07T07:20:28;15.63;;;10.10;;
70981;SDS011;58640;51.320;9.456;2023-05-07T07:22:53;11.95;;;9.30;;
70981;SDS011;58640;51.320;9.456;2023-05-07T07:25:19;11.35;;;8.85;;
70981;SDS011;58640;51.320;9.456;2023-05-07T07:27:44;11.23;;;8.38;;
70981;SDS011;58640;51.320;9.456;2023-05-07T07:30:10;10.52;;;8.30;;
70981;SDS011;58640;51.320;9.456;2023-05-07T07:32:35;12.43;;;8.25;;
70981;SDS011;58640;51.320;9.456;2023-05-07T07:35:00;13.95;;;8.82;;
70981;SDS011;58640;51.320;9.456;2023-05-07T07:37:26;11.25;;;7.65;;
70981;SDS011;58640;51.320;9.456;2023-05-07T07:39:52;11.18;;;8.40;;
70981;SDS011;58640;51.320;9.456;2023-05-07T07:42:17;12.40;;;8.02;;
70981;SDS011;58640;51.320;9.456;2023-05-07T07:44:43;10.50;;;7.78;;
70981;SDS011;58640;51.320;9.456;2023-05-07T07:47:09;10.77;;;8.07;;
70981;SDS011;58640;51.320;9.456;2023-05-07T07:49:35;12.23;;;8.18;;
70981;SDS011;58640;51.320;9.456;2023-05-07T07:52:01;10.90;;;7.78;;
70981;SDS011;58640;51.320;9.456;2023-05-07T07:54:26;11.02;;;7.88;;
70981;SDS011;58640;51.320;9.456;2023-05-07T07:56:51;11.35;;;8.43;;
70981;SDS011;58640;51.320;9.456;2023-05-07T07:59:17;11.48;;;9.13;;
70981;SDS011;58640;51.320;9.456;2023-05-07T08:01:44;10.95;;;8.18;;
70981;SDS011;58640;51.320;9.456;2023-05-07T08:04:09;10.15;;;7.85;;
70981;SDS011;58640;51.320;9.456;2023-05-07T08:06:35;10.32;;;7.80;;
70981;SDS011;58640;51.320;9.456;2023-05-07T08:09:00;8.90;;;7.07;;
70981;SDS011;58640;51.320;9.456;2023-05-07T08:11:26;8.85;;;7.10;;
70981;SDS011;58640;51.320;9.456;2023-05-07T08:13:51;7.18;;;6.28;;
70981;SDS011;58640;51.320;9.456;2023-05-07T08:16:17;11.65;;;7.28;;
70981;SDS011;58640;51.320;9.456;2023-05-07T08:18:42;10.25;;;7.22;;
70981;SDS011;58640;51.320;9.456;2023-05-07T08:21:08;12.20;;;7.22;;
70981;SDS011;58640;51.320;9.456;2023-05-07T08:23:33;9.15;;;6.88;;
70981;SDS011;58640;51.320;9.456;2023-05-07T08:25:59;7.75;;;6.90;;
70981;SDS011;58640;51.320;9.456;2023-05-07T08:28:25;10.30;;;7.05;;
70981;SDS011;58640;51.320;9.456;2023-05-07T08:30:50;9.50;;;7.85;;
70981;SDS011;58640;51.320;9.456;2023-05-07T08:33:15;8.20;;;6.28;;
70981;SDS011;58640;51.320;9.456;2023-05-07T08:35:41;12.35;;;8.80;;
70981;SDS011;58640;51.320;9.456;2023-05-07T08:38:06;8.43;;;7.40;;
70981;SDS011;58640;51.320;9.456;2023-05-07T08:40:33;9.63;;;7.28;;
70981;SDS011;58640;51.320;9.456;2023-05-07T08:43:02;7.10;;;6.15;;
70981;SDS011;58640;51.320;9.456;2023-05-07T08:45:29;9.07;;;6.13;;
70981;SDS011;58640;51.320;9.456;2023-05-07T08:47:58;6.85;;;6.13;;
70981;SDS011;58640;51.320;9.456;2023-05-07T08:50:25;7.38;;;6.25;;
70981;SDS011;58640;51.320;9.456;2023-05-07T08:52:51;9.25;;;6.60;;
70981;SDS011;58640;51.320;9.456;2023-05-07T08:55:16;9.77;;;6.25;;
70981;SDS011;58640;51.320;9.456;2023-05-07T08:57:42;7.47;;;6.57;;
70981;SDS011;58640;51.320;9.456;2023-05-07T09:00:07;12.02;;;5.82;;
70981;SDS011;58640;51.320;9.456;2023-05-07T09:02:35;6.88;;;5.45;;
70981;SDS011;58640;51.320;9.456;2023-05-07T09:05:01;68.32;;;12.48;;
70981;SDS011;58640;51.320;9.456;2023-05-07T09:07:26;8.40;;;5.95;;
70981;SDS011;58640;51.320;9.456;2023-05-07T09:09:52;6.28;;;5.60;;
70981;SDS011;58640;51.320;9.456;2023-05-07T09:12:19;6.07;;;5.20;;
70981;SDS011;58640;51.320;9.456;2023-05-07T09:14:46;5.63;;;4.85;;
70981;SDS011;58640;51.320;9.456;2023-05-07T09:17:12;10.05;;;8.25;;
70981;SDS011;58640;51.320;9.456;2023-05-07T09:19:37;9.48;;;5.75;;
70981;SDS011;58640;51.320;9.456;2023-05-07T09:22:03;6.43;;;5.45;;
70981;SDS011;58640;51.320;9.456;2023-05-07T09:24:30;6.85;;;5.50;;
70981;SDS011;58640;51.320;9.456;2023-05-07T09:27:00;6.68;;;5.40;;
70981;SDS011;58640;51.320;9.456;2023-05-07T09:29:26;6.53;;;4.75;;
70981;SDS011;58640;51.320;9.456;2023-05-07T09:31:53;8.68;;;4.25;;
70981;SDS011;58640;51.320;9.456;2023-05-07T09:34:19;6.63;;;4.50;;
70981;SDS011;58640;51.320;9.456;2023-05-07T09:36:44;7.68;;;4.82;;
70981;SDS011;58640;51.320;9.456;2023-05-07T09:39:10;10.55;;;4.97;;
70981;SDS011;58640;51.320;9.456;2023-05-07T09:41:43;4.45;;;3.95;;
70981;SDS011;58640;51.320;9.456;2023-05-07T09:44:13;6.60;;;4.03;;
70981;SDS011;58640;51.320;9.456;2023-05-07T09:46:39;5.22;;;3.80;;
70981;SDS011;58640;51.320;9.456;2023-05-07T09:49:08;5.78;;;3.65;;
70981;SDS011;58640;51.320;9.456;2023-05-07T09:51:48;4.63;;;3.90;;
70981;SDS011;58640;51.320;9.456;2023-05-07T09:54:16;3.97;;;3.47;;
70981;SDS011;58640;51.320;9.456;2023-05-07T09:56:43;5.30;;;3.25;;
70981;SDS011;58640;51.320;9.456;2023-05-07T09:59:13;3.63;;;3.13;;
70981;SDS011;58640;51.320;9.456;2023-05-07T10:01:40;4.25;;;3.40;;
70981;SDS011;58640;51.320;9.456;2023-05-07T10:04:07;3.53;;;3.10;;
70981;SDS011;58640;51.320;9.456;2023-05-07T10:06:35;5.60;;;4.05;;
70981;SDS011;58640;51.320;9.456;2023-05-07T10:09:02;4.18;;;3.72;;
70981;SDS011;58640;51.320;9.456;2023-05-07T10:11:28;3.85;;;2.85;;
70981;SDS011;58640;51.320;9.456;2023-05-07T10:13:54;4.22;;;3.42;;
70981;SDS011;58640;51.320;9.456;2023-05-07T10:16:20;3.33;;;2.55;;
70981;SDS011;58640;51.320;9.456;2023-05-07T10:18:46;6.72;;;2.55;;
70981;SDS011;58640;51.320;9.456;2023-05-07T10:21:19;3.20;;;2.42;;
70981;SDS011;58640;51.320;9.456;2023-05-07T10:23:47;4.15;;;2.58;;
70981;SDS011;58640;51.320;9.456;2023-05-07T10:26:15;4.68;;;3.40;;
70981;SDS011;58640;51.320;9.456;2023-05-07T10:28:44;2.88;;;2.20;;
70981;SDS011;58640;51.320;9.456;2023-05-07T10:32:06;3.40;;;2.35;;
70981;SDS011;58640;51.320;9.456;2023-05-07T10:34:09;2.63;;;2.40;;
70981;SDS011;58640;51.320;9.456;2023-05-07T10:36:38;4.00;;;2.88;;
70981;SDS011;58640;51.320;9.456;2023-05-07T10:39:04;2.83;;;2.53;;
70981;SDS011;58640;51.320;9.456;2023-05-07T10:41:31;2.72;;;2.50;;
70981;SDS011;58640;51.320;9.456;2023-05-07T10:43:56;4.38;;;2.95;;
70981;SDS011;58640;51.320;9.456;2023-05-07T10:46:22;2.72;;;2.33;;
70981;SDS011;58640;51.320;9.456;2023-05-07T10:51:25;2.35;;;2.15;;
70981;SDS011;58640;51.320;9.456;2023-05-07T10:54:33;2.58;;;1.90;;
70981;SDS011;58640;51.320;9.456;2023-05-07T10:56:40;3.78;;;2.45;;
70981;SDS011;58640;51.320;9.456;2023-05-07T10:59:29;3.10;;;2.55;;
70981;SDS011;58640;51.320;9.456;2023-05-07T11:02:03;3.50;;;2.70;;
70981;SDS011;58640;51.320;9.456;2023-05-07T11:04:29;2.75;;;2.45;;
70981;SDS011;58640;51.320;9.456;2023-05-07T11:12:46;3.83;;;2.33;;
70981;SDS011;58640;51.320;9.456;2023-05-07T11:15:15;3.10;;;2.72;;
70981;SDS011;58640;51.320;9.456;2023-05-07T11:18:16;4.35;;;2.67;;
70981;SDS011;58640;51.320;9.456;2023-05-07T11:26:07;3.78;;;2.80;;
70981;SDS011;58640;51.320;9.456;2023-05-07T11:28:38;3.45;;;2.70;;
70981;SDS011;58640;51.320;9.456;2023-05-07T11:31:05;4.35;;;2.97;;
70981;SDS011;58640;51.320;9.456;2023-05-07T11:33:31;6.05;;;3.38;;
70981;SDS011;58640;51.320;9.456;2023-05-07T11:35:56;3.70;;;3.33;;
70981;SDS011;58640;51.320;9.456;2023-05-07T11:38:22;4.47;;;3.42;;
70981;SDS011;58640;51.320;9.456;2023-05-07T11:40:58;3.28;;;2.97;;
70981;SDS011;58640;51.320;9.456;2023-05-07T11:43:29;2.95;;;2.58;;
70981;SDS011;58640;51.320;9.456;2023-05-07T11:45:54;3.90;;;3.47;;
70981;SDS011;58640;51.320;9.456;2023-05-07T11:48:21;4.78;;;3.33;;
70981;SDS011;58640;51.320;9.456;2023-05-07T11:50:53;6.32;;;3.55;;
70981;SDS011;58640;51.320;9.456;2023-05-07T11:53:25;6.88;;;4.20;;
70981;SDS011;58640;51.320;9.456;2023-05-07T11:55:57;8.07;;;3.58;;
70981;SDS011;58640;51.320;9.456;2023-05-07T11:58:23;4.28;;;3.50;;
70981;SDS011;58640;51.320;9.456;2023-05-07T12:00:50;8.93;;;3.88;;
70981;SDS011;58640;51.320;9.456;2023-05-07T12:03:16;6.43;;;4.28;;
70981;SDS011;58640;51.320;9.456;2023-05-07T12:05:43;7.72;;;4.40;;
70981;SDS011;58640;51.320;9.456;2023-05-07T12:08:13;7.85;;;4.05;;
70981;SDS011;58640;51.320;9.456;2023-05-07T12:10:43;10.32;;;5.05;;
70981;SDS011;58640;51.320;9.456;2023-05-07T12:13:18;4.88;;;4.13;;
70981;SDS011;58640;51.320;9.456;2023-05-07T12:15:52;6.28;;;4.22;;
70981;SDS011;58640;51.320;9.456;2023-05-07T12:18:18;6.40;;;4.28;;
70981;SDS011;58640;51.320;9.456;2023-05-07T12:20:44;6.18;;;4.65;;
70981;SDS011;58640;51.320;9.456;2023-05-07T12:23:10;7.15;;;5.00;;
70981;SDS011;58640;51.320;9.456;2023-05-07T12:25:37;9.10;;;5.20;;
70981;SDS011;58640;51.320;9.456;2023-05-07T12:28:03;7.55;;;5.85;;
70981;SDS011;58640;51.320;9.456;2023-05-07T12:30:36;6.00;;;5.40;;
70981;SDS011;58640;51.320;9.456;2023-05-07T12:33:02;5.40;;;4.90;;
70981;SDS011;58640;51.320;9.456;2023-05-07T12:37:54;6.55;;;5.57;;
70981;SDS011;58640;51.320;9.456;2023-05-07T12:40:20;7.30;;;5.50;;
70981;SDS011;58640;51.320;9.456;2023-05-07T12:42:46;6.57;;;5.13;;
70981;SDS011;58640;51.320;9.456;2023-05-07T12:45:12;8.88;;;5.63;;
70981;SDS011;58640;51.320;9.456;2023-05-07T12:47:38;5.90;;;5.30;;
70981;SDS011;58640;51.320;9.456;2023-05-07T12:50:07;7.70;;;6.20;;
70981;SDS011;58640;51.320;9.456;2023-05-07T12:52:33;10.75;;;6.53;;
70981;SDS011;58640;51.320;9.456;2023-05-07T12:55:04;8.45;;;6.25;;
70981;SDS011;58640;51.320;9.456;2023-05-07T12:57:31;8.48;;;6.32;;
70981;SDS011;58640;51.320;9.456;2023-05-07T13:00:03;7.85;;;6.47;;
70981;SDS011;58640;51.320;9.456;2023-05-07T13:02:32;6.80;;;6.07;;
70981;SDS011;58640;51.320;9.456;2023-05-07T13:04:58;6.63;;;5.70;;
70981;SDS011;58640;51.320;9.456;2023-05-07T13:07:24;7.07;;;5.43;;
70981;SDS011;58640;51.320;9.456;2023-05-07T13:09:50;9.20;;;5.85;;
70981;SDS011;58640;51.320;9.456;2023-05-07T13:12:15;8.13;;;6.38;;
70981;SDS011;58640;51.320;9.456;2023-05-07T13:14:41;6.72;;;5.50;;
70981;SDS011;58640;51.320;9.456;2023-05-07T13:17:06;6.65;;;5.00;;
70981;SDS011;58640;51.320;9.456;2023-05-07T13:19:31;7.80;;;5.88;;
70981;SDS011;58640;51.320;9.456;2023-05-07T13:21:57;8.48;;;5.35;;
70981;SDS011;58640;51.320;9.456;2023-05-07T13:24:22;7.75;;;5.65;;
70981;SDS011;58640;51.320;9.456;2023-05-07T13:26:47;7.30;;;5.85;;
70981;SDS011;58640;51.320;9.456;2023-05-07T13:29:13;7.00;;;5.50;;
70981;SDS011;58640;51.320;9.456;2023-05-07T13:31:38;9.52;;;5.80;;
70981;SDS011;58640;51.320;9.456;2023-05-07T13:34:07;10.43;;;5.93;;
70981;SDS011;58640;51.320;9.456;2023-05-07T13:36:33;7.68;;;6.00;;
70981;SDS011;58640;51.320;9.456;2023-05-07T13:39:02;8.73;;;6.40;;
70981;SDS011;58640;51.320;9.456;2023-05-07T13:41:28;8.00;;;6.25;;
70981;SDS011;58640;51.320;9.456;2023-05-07T13:43:54;8.98;;;6.95;;
70981;SDS011;58640;51.320;9.456;2023-05-07T13:46:19;9.30;;;7.18;;
70981;SDS011;58640;51.320;9.456;2023-05-07T13:48:45;8.23;;;7.40;;
70981;SDS011;58640;51.320;9.456;2023-05-07T13:51:10;9.95;;;8.00;;
70981;SDS011;58640;51.320;9.456;2023-05-07T13:53:36;8.48;;;7.13;;
70981;SDS011;58640;51.320;9.456;2023-05-07T13:56:01;9.38;;;7.38;;
70981;SDS011;58640;51.320;9.456;2023-05-07T13:58:29;11.52;;;7.32;;
70981;SDS011;58640;51.320;9.456;2023-05-07T14:00:54;8.80;;;7.60;;
70981;SDS011;58640;51.320;9.456;2023-05-07T14:03:20;8.98;;;7.03;;
70981;SDS011;58640;51.320;9.456;2023-05-07T14:05:45;10.32;;;7.30;;
70981;SDS011;58640;51.320;9.456;2023-05-07T14:08:11;8.10;;;7.20;;
70981;SDS011;58640;51.320;9.456;2023-05-07T14:10:38;9.02;;;7.25;;
70981;SDS011;58640;51.320;9.456;2023-05-07T14:13:04;11.23;;;7.95;;
70981;SDS011;58640;51.320;9.456;2023-05-07T14:15:29;10.40;;;7.00;;
70981;SDS011;58640;51.320;9.456;2023-05-07T14:17:55;13.48;;;9.05;;
70981;SDS011;58640;51.320;9.456;2023-05-07T14:20:22;8.85;;;7.22;;
70981;SDS011;58640;51.320;9.456;2023-05-07T14:22:47;12.80;;;7.15;;
70981;SDS011;58640;51.320;9.456;2023-05-07T14:25:13;11.73;;;8.00;;
70981;SDS011;58640;51.320;9.456;2023-05-07T14:27:38;9.23;;;7.72;;
70981;SDS011;58640;51.320;9.456;2023-05-07T14:30:04;10.57;;;7.25;;
70981;SDS011;58640;51.320;9.456;2023-05-07T14:32:30;11.38;;;7.93;;
70981;SDS011;58640;51.320;9.456;2023-05-07T14:34:55;8.63;;;6.80;;
70981;SDS011;58640;51.320;9.456;2023-05-07T14:37:20;8.85;;;6.88;;
70981;SDS011;58640;51.320;9.456;2023-05-07T14:39:46;9.50;;;7.25;;
70981;SDS011;58640;51.320;9.456;2023-05-07T14:42:11;8.95;;;7.40;;
70981;SDS011;58640;51.320;9.456;2023-05-07T14:44:37;9.48;;;7.50;;